Time;durP1;ratioP1;P1;durP2;ratioP2;P2;SDS_P1;SDS_P2;PMS_P1;PMS_P2;Temp;Humidity;BMP_temperature;BMP_pressure;BME280_temperature;BME280_humidity;BME280_pressure;Samples;Min_cycle;Max_cycle;Signal;HPM_P1;HPM_P2
2023/09/23 00:04:44;;;;;;;;;;;14.00;99.90;;;;;;12346579;28;19936;-83
2023/09/23 00:10:48;;;;;;;;;;;14.00;99.90;;;;;;12359052;28;20376;-84
2023/09/23 00:16:50;;;;;;;;;;;14.00;99.90;;;;;;12361682;28;20401;-84
2023/09/23 00:22:52;;;;;;;;;;;13.90;99.90;;;;;;12348774;28;19934;-84
2023/09/23 00:28:54;;;;;;;;;;;13.80;99.90;;;;;;12374264;28;20016;-84
2023/09/23 00:34:56;;;;;;;;;;;13.80;99.90;;;;;;12358837;28;19925;-83
2023/09/23 00:40:58;;;;;;;;;;;13.70;99.90;;;;;;12368898;28;19938;-83
2023/09/23 00:47:00;;;;;;;;;;;13.70;99.90;;;;;;12358437;28;19933;-84
2023/09/23 00:53:04;;;;;;;;;;;13.70;99.90;;;;;;12357657;28;20453;-83
2023/09/23 00:59:06;;;;;;;;;;;13.60;99.90;;;;;;12361824;28;20084;-83
2023/09/23 01:05:09;;;;;;;;;;;13.50;99.90;;;;;;12362800;28;19930;-83
2023/09/23 01:11:16;;;;;;;;;;;13.40;99.90;;;;;;12366281;28;19933;-83
2023/09/23 01:17:18;;;;;;;;;;;13.40;99.90;;;;;;12364431;28;19968;-83
2023/09/23 01:23:20;;;;;;;;;;;13.30;99.90;;;;;;12368673;28;19933;-84
2023/09/23 01:29:22;;;;;;;;;;;13.30;99.90;;;;;;12390717;28;19929;-82
2023/09/23 01:35:24;;;;;;;;;;;13.30;99.90;;;;;;12364300;28;19929;-83
2023/09/23 01:41:26;;;;;;;;;;;13.20;99.90;;;;;;12393120;28;19938;-83
2023/09/23 01:47:28;;;;;;;;;;;13.20;99.90;;;;;;12369390;28;20440;-84
2023/09/23 01:53:32;;;;;;;;;;;13.10;99.90;;;;;;12383744;28;20024;-82
2023/09/23 01:59:34;;;;;;;;;;;13.10;99.90;;;;;;12381204;28;19930;-82
2023/09/23 02:05:36;;;;;;;;;;;13.00;99.90;;;;;;12366938;28;20374;-82
2023/09/23 02:11:38;;;;;;;;;;;12.90;99.90;;;;;;12366094;28;19929;-83
2023/09/23 02:17:40;;;;;;;;;;;12.80;99.90;;;;;;12385516;28;19930;-82
2023/09/23 02:23:43;;;;;;;;;;;12.80;99.90;;;;;;12357306;28;20383;-82
2023/09/23 02:29:44;;;;;;;;;;;12.90;99.90;;;;;;12369709;28;19972;-82
2023/09/23 02:35:46;;;;;;;;;;;12.90;99.90;;;;;;12355303;28;20385;-82
2023/09/23 02:41:49;;;;;;;;;;;12.90;99.90;;;;;;12372145;28;19941;-82
2023/09/23 02:47:52;;;;;;;;;;;12.90;99.90;;;;;;12363694;28;19933;-82
2023/09/23 02:53:54;;;;;;;;;;;12.80;99.90;;;;;;12373533;28;19984;-82
2023/09/23 02:59:58;;;;;;;;;;;12.90;99.90;;;;;;12363136;28;19939;-83
2023/09/23 03:06:06;;;;;;;;;;;12.80;99.90;;;;;;12369165;28;19930;-84
2023/09/23 03:12:08;;;;;;;;;;;12.80;99.90;;;;;;12361271;28;19929;-84
2023/09/23 03:18:14;;;;;;;;;;;12.80;99.90;;;;;;12382310;28;20017;-84
2023/09/23 03:24:17;;;;;;;;;;;12.80;99.90;;;;;;12381884;28;19926;-85
2023/09/23 03:30:19;;;;;;;;;;;12.70;99.90;;;;;;12358634;28;19934;-84
2023/09/23 03:36:24;;;;;;;;;;;12.80;99.90;;;;;;12374723;28;19984;-84
2023/09/23 03:42:26;;;;;;;;;;;12.80;99.90;;;;;;12366138;28;19930;-83
2023/09/23 03:48:28;;;;;;;;;;;12.80;99.90;;;;;;12370048;28;19930;-84
2023/09/23 03:54:30;;;;;;;;;;;12.80;99.90;;;;;;12374882;28;20102;-83
2023/09/23 04:00:35;;;;;;;;;;;12.80;99.90;;;;;;12367250;28;19972;-84
2023/09/23 04:06:36;;;;;;;;;;;12.70;99.90;;;;;;12380842;28;19983;-83
2023/09/23 04:12:41;;;;;;;;;;;12.60;99.90;;;;;;12354593;28;19929;-84
2023/09/23 04:18:43;;;;;;;;;;;12.60;99.90;;;;;;12363473;28;19933;-84
2023/09/23 04:24:45;;;;;;;;;;;12.60;99.90;;;;;;12352953;28;19930;-81
2023/09/23 04:30:47;;;;;;;;;;;12.60;99.90;;;;;;12381542;28;20024;-82
2023/09/23 04:36:49;;;;;;;;;;;12.50;99.90;;;;;;12381780;28;19952;-81
2023/09/23 04:42:51;;;;;;;;;;;12.40;99.90;;;;;;12373032;28;20358;-83
2023/09/23 04:48:53;;;;;;;;;;;12.40;99.90;;;;;;12428218;28;19930;-83
2023/09/23 04:54:55;;;;;;;;;;;12.30;99.90;;;;;;12426075;28;19922;-84
2023/09/23 05:00:58;;;;;;;;;;;12.30;99.90;;;;;;12436332;28;19930;-84
2023/09/23 05:07:01;;;;;;;;;;;12.20;99.90;;;;;;12403253;28;19937;-84
2023/09/23 05:13:03;;;;;;;;;;;12.20;99.90;;;;;;12383504;28;19940;-83
2023/09/23 05:19:05;;;;;;;;;;;12.20;99.90;;;;;;12385942;28;19930;-81
2023/09/23 05:25:07;;;;;;;;;;;12.20;99.90;;;;;;12364130;28;20196;-84
2023/09/23 05:31:09;;;;;;;;;;;12.30;99.90;;;;;;12360866;28;20010;-83
2023/09/23 05:37:11;;;;;;;;;;;12.40;99.90;;;;;;12376226;28;19926;-84
2023/09/23 05:43:13;;;;;;;;;;;12.40;99.90;;;;;;12376482;28;19968;-83
2023/09/23 05:49:14;;;;;;;;;;;12.30;99.90;;;;;;12355761;28;19925;-83
2023/09/23 05:55:16;;;;;;;;;;;12.30;99.90;;;;;;12340208;28;19933;-83
2023/09/23 06:01:18;;;;;;;;;;;12.40;99.90;;;;;;12361731;28;19930;-82
2023/09/23 06:07:20;;;;;;;;;;;12.40;99.90;;;;;;12358658;28;20013;-85
2023/09/23 06:13:22;;;;;;;;;;;12.50;99.90;;;;;;12369812;28;19995;-85
2023/09/23 06:19:24;;;;;;;;;;;12.40;99.90;;;;;;12385385;28;19938;-83
2023/09/23 06:25:26;;;;;;;;;;;12.40;99.90;;;;;;12359871;28;20445;-83
2023/09/23 06:31:27;;;;;;;;;;;12.30;99.90;;;;;;12376051;28;19980;-81
2023/09/23 06:37:29;;;;;;;;;;;12.40;99.90;;;;;;12359142;28;19929;-82
2023/09/23 06:43:31;;;;;;;;;;;12.50;99.90;;;;;;12367250;28;19930;-83
2023/09/23 06:49:33;;;;;;;;;;;12.50;99.90;;;;;;12350524;28;19955;-82
2023/09/23 06:55:35;;;;;;;;;;;12.60;99.90;;;;;;12358366;28;20437;-84
2023/09/23 07:01:36;;;;;;;;;;;12.70;99.90;;;;;;12363643;28;20020;-84
2023/09/23 07:07:38;;;;;;;;;;;12.80;99.90;;;;;;12382853;28;19941;-83
2023/09/23 07:13:40;;;;;;;;;;;13.00;99.90;;;;;;12361852;28;20097;-83
2023/09/23 07:19:45;;;;;;;;;;;13.10;99.90;;;;;;12363598;28;19936;-82
2023/09/23 07:25:47;;;;;;;;;;;13.00;99.90;;;;;;12382041;28;20399;-82
2023/09/23 07:31:49;;;;;;;;;;;12.90;99.90;;;;;;12360350;28;19937;-83
2023/09/23 07:37:50;;;;;;;;;;;12.90;99.90;;;;;;12364871;28;19981;-82
2023/09/23 07:43:52;;;;;;;;;;;12.90;99.90;;;;;;12374081;28;20408;-82
2023/09/23 07:49:54;;;;;;;;;;;12.90;99.90;;;;;;12378585;28;20060;-83
2023/09/23 07:55:56;;;;;;;;;;;12.90;99.90;;;;;;12359556;28;19930;-81
2023/09/23 08:01:58;;;;;;;;;;;13.00;99.90;;;;;;12389823;28;19937;-81
2023/09/23 08:08:00;;;;;;;;;;;13.10;99.90;;;;;;12362430;28;20541;-82
2023/09/23 08:14:02;;;;;;;;;;;13.20;99.90;;;;;;12359242;28;19930;-82
2023/09/23 08:20:17;;;;;;;;;;;13.30;99.90;;;;;;12361744;28;19937;-81
2023/09/23 08:26:19;;;;;;;;;;;13.30;99.90;;;;;;12373976;28;20392;-82
2023/09/23 08:32:20;;;;;;;;;;;13.30;99.90;;;;;;12369252;28;20310;-82
2023/09/23 08:38:22;;;;;;;;;;;13.60;99.90;;;;;;12365904;28;19925;-81
2023/09/23 08:44:24;;;;;;;;;;;14.00;99.90;;;;;;12379884;28;19930;-81
2023/09/23 08:50:27;;;;;;;;;;;14.30;99.90;;;;;;12364715;28;19937;-81
2023/09/23 08:56:29;;;;;;;;;;;14.20;99.90;;;;;;12358107;28;19936;-81
2023/09/23 09:02:31;;;;;;;;;;;14.60;99.90;;;;;;12365165;28;20448;-82
2023/09/23 09:08:33;;;;;;;;;;;15.20;99.90;;;;;;12356365;28;19956;-84
2023/09/23 09:14:35;;;;;;;;;;;15.20;99.90;;;;;;12359453;28;19929;-84
2023/09/23 09:20:37;;;;;;;;;;;15.50;99.90;;;;;;12360327;28;20465;-83
2023/09/23 09:26:39;;;;;;;;;;;15.40;99.90;;;;;;12376814;28;20378;-83
2023/09/23 09:32:42;;;;;;;;;;;15.10;99.90;;;;;;12351226;28;19925;-83
2023/09/23 09:38:44;;;;;;;;;;;14.70;99.90;;;;;;12375980;28;19933;-84
2023/09/23 09:44:47;;;;;;;;;;;14.60;99.90;;;;;;12360170;28;20052;-82
2023/09/23 09:50:50;;;;;;;;;;;14.70;99.90;;;;;;12359077;28;19980;-85
2023/09/23 09:56:55;;;;;;;;;;;14.60;99.90;;;;;;12381742;28;19959;-87
2023/09/23 10:03:00;;;;;;;;;;;14.60;99.90;;;;;;12360177;28;20469;-85
2023/09/23 10:09:13;;;;;;;;;;;14.50;99.90;;;;;;12382603;28;19926;-83
2023/09/23 10:15:23;;;;;;;;;;;14.50;99.90;;;;;;12363012;28;19969;-85
2023/09/23 10:21:27;;;;;;;;;;;15.00;99.90;;;;;;12380628;28;19942;-87
2023/09/23 10:27:30;;;;;;;;;;;15.50;99.90;;;;;;12381484;28;19930;-85
2023/09/23 10:33:34;;;;;;;;;;;15.40;99.90;;;;;;12380570;28;20436;-83
2023/09/23 10:39:42;;;;;;;;;;;15.30;99.90;;;;;;12364972;28;19936;-84
2023/09/23 10:45:44;;;;;;;;;;;15.10;99.90;;;;;;12385733;28;19930;-86
2023/09/23 10:51:46;;;;;;;;;;;15.10;99.90;;;;;;12352891;28;20243;-83
2023/09/23 10:57:50;;;;;;;;;;;15.70;95.20;;;;;;12366713;28;20048;-84
2023/09/23 11:03:51;;;;;;;;;;;16.50;99.90;;;;;;12360666;28;20056;-85
2023/09/23 11:09:54;;;;;;;;;;;16.30;28.30;;;;;;12348567;28;19965;-83
2023/09/23 11:15:56;;;;;;;;;;;16.10;77.50;;;;;;12382314;28;19968;-83
2023/09/23 11:21:58;;;;;;;;;;;16.10;49.90;;;;;;12371952;28;20335;-85
2023/09/23 11:28:00;;;;;;;;;;;15.80;83.60;;;;;;12365104;28;20017;-82
2023/09/23 11:34:02;;;;;;;;;;;15.70;44.10;;;;;;12373810;28;19935;-84
2023/09/23 11:40:06;;;;;;;;;;;15.80;44.30;;;;;;12369619;28;20028;-84
2023/09/23 11:46:08;;;;;;;;;;;15.90;1.00;;;;;;12373267;28;19937;-82
2023/09/23 11:52:13;;;;;;;;;;;15.90;43.10;;;;;;12352917;28;19984;-85
2023/09/23 11:58:15;;;;;;;;;;;16.00;68.90;;;;;;12362412;28;19988;-85
2023/09/23 12:04:17;;;;;;;;;;;16.20;1.00;;;;;;12336378;28;20034;-83
2023/09/23 12:10:18;;;;;;;;;;;16.50;19.20;;;;;;12357895;28;19929;-84
2023/09/23 12:16:20;;;;;;;;;;;16.90;1.00;;;;;;12373681;28;19953;-83
2023/09/23 12:22:22;;;;;;;;;;;17.20;1.00;;;;;;12353756;28;19930;-84
2023/09/23 12:28:24;;;;;;;;;;;17.10;1.00;;;;;;12374194;28;19929;-84
2023/09/23 12:34:26;;;;;;;;;;;16.90;1.00;;;;;;12353444;28;19933;-84
2023/09/23 12:40:28;;;;;;;;;;;17.20;1.00;;;;;;12376471;28;19926;-84
2023/09/23 12:46:30;;;;;;;;;;;16.80;1.00;;;;;;12365291;28;20370;-84
2023/09/23 12:52:32;;;;;;;;;;;16.50;8.30;;;;;;12380770;28;19929;-84
2023/09/23 12:58:34;;;;;;;;;;;16.30;1.00;;;;;;12356560;28;19941;-86
2023/09/23 13:04:36;;;;;;;;;;;16.00;1.00;;;;;;12356092;28;19926;-85
2023/09/23 13:10:38;;;;;;;;;;;15.70;1.00;;;;;;12368505;28;19973;-87
2023/09/23 13:16:40;;;;;;;;;;;15.80;1.00;;;;;;12355319;28;19929;-86
2023/09/23 13:22:42;;;;;;;;;;;15.80;1.00;;;;;;12354288;28;20463;-84
2023/09/23 13:28:44;;;;;;;;;;;15.80;33.00;;;;;;12373572;28;19933;-84
2023/09/23 13:34:48;;;;;;;;;;;15.70;12.40;;;;;;12354017;28;19976;-84
2023/09/23 13:40:50;;;;;;;;;;;15.70;87.70;;;;;;12371001;28;20430;-85
2023/09/23 13:46:52;;;;;;;;;;;15.70;23.90;;;;;;12367680;28;19935;-84
2023/09/23 13:52:54;;;;;;;;;;;15.80;97.60;;;;;;12361085;28;19937;-85
2023/09/23 13:58:56;;;;;;;;;;;15.90;11.10;;;;;;12369279;28;20575;-85
2023/09/23 14:04:58;;;;;;;;;;;15.90;1.00;;;;;;12369888;28;19926;-84
2023/09/23 14:11:04;;;;;;;;;;;15.90;1.00;;;;;;12371344;28;19944;-85
2023/09/23 14:17:06;;;;;;;;;;;15.90;92.30;;;;;;12382837;28;20602;-85
2023/09/23 14:23:08;;;;;;;;;;;15.90;1.00;;;;;;12361314;28;19932;-85
2023/09/23 14:29:10;;;;;;;;;;;15.90;1.00;;;;;;12378306;28;20471;-85
2023/09/23 14:35:12;;;;;;;;;;;15.80;1.00;;;;;;12357680;28;19929;-82
2023/09/23 14:41:14;;;;;;;;;;;15.80;1.00;;;;;;12368997;28;19939;-84
2023/09/23 14:47:15;;;;;;;;;;;15.80;1.00;;;;;;12374805;28;20402;-85
2023/09/23 14:53:19;;;;;;;;;;;15.70;9.50;;;;;;12353932;28;20012;-85
2023/09/23 14:59:21;;;;;;;;;;;15.80;7.10;;;;;;12362509;28;20533;-85
2023/09/23 15:05:23;;;;;;;;;;;15.80;10.30;;;;;;12362809;28;19929;-86
2023/09/23 15:11:27;;;;;;;;;;;15.80;1.00;;;;;;12359514;28;19934;-83
2023/09/23 15:17:29;;;;;;;;;;;15.80;1.00;;;;;;12354322;28;19981;-83
2023/09/23 15:23:32;;;;;;;;;;;15.70;1.00;;;;;;12356679;28;19926;-84
2023/09/23 15:29:34;;;;;;;;;;;15.70;1.90;;;;;;12362790;28;20021;-84
2023/09/23 15:35:36;;;;;;;;;;;15.60;1.00;;;;;;12359383;28;20035;-87
2023/09/23 15:41:38;;;;;;;;;;;15.60;17.60;;;;;;12378454;28;19960;-86
2023/09/23 15:47:40;;;;;;;;;;;15.60;24.70;;;;;;12369311;28;20275;-85
2023/09/23 15:53:42;;;;;;;;;;;15.60;30.00;;;;;;12382161;28;20535;-86
2023/09/23 15:59:44;;;;;;;;;;;15.60;53.50;;;;;;12362412;28;20398;-87
2023/09/23 16:05:47;;;;;;;;;;;15.70;99.90;;;;;;12354223;28;20035;-85
2023/09/23 16:11:48;;;;;;;;;;;15.70;53.90;;;;;;12374843;28;19937;-87
2023/09/23 16:17:50;;;;;;;;;;;15.50;34.80;;;;;;12375666;28;20473;-87
2023/09/23 16:23:52;;;;;;;;;;;15.50;66.00;;;;;;12362159;28;19964;-87
2023/09/23 16:29:54;;;;;;;;;;;15.40;61.70;;;;;;12348510;28;20301;-84
2023/09/23 16:35:56;;;;;;;;;;;15.40;88.90;;;;;;12375642;28;19929;-84
2023/09/23 16:41:58;;;;;;;;;;;15.40;91.90;;;;;;12378262;28;19969;-86
2023/09/23 16:47:59;;;;;;;;;;;15.30;54.30;;;;;;12361661;28;19941;-86
2023/09/23 16:54:02;;;;;;;;;;;15.20;69.90;;;;;;12368564;28;20395;-85
2023/09/23 17:00:04;;;;;;;;;;;15.20;80.10;;;;;;12361289;28;19929;-84
2023/09/23 17:06:07;;;;;;;;;;;15.10;94.10;;;;;;12367157;28;19957;-84
2023/09/23 17:12:12;;;;;;;;;;;15.00;90.90;;;;;;12357329;28;19969;-84
2023/09/23 17:18:17;;;;;;;;;;;15.10;91.50;;;;;;12374796;28;20370;-87
2023/09/23 17:24:19;;;;;;;;;;;15.00;99.90;;;;;;12355513;28;19956;-84
2023/09/23 17:30:21;;;;;;;;;;;15.00;99.90;;;;;;12353162;28;19933;-85
2023/09/23 17:36:24;;;;;;;;;;;14.90;95.30;;;;;;12355657;28;19980;-85
2023/09/23 17:42:26;;;;;;;;;;;14.90;99.90;;;;;;12379810;28;20554;-83
2023/09/23 17:48:28;;;;;;;;;;;14.90;99.90;;;;;;12357436;28;19926;-86
2023/09/23 17:54:30;;;;;;;;;;;14.90;99.90;;;;;;12351213;28;19976;-84
2023/09/23 18:00:31;;;;;;;;;;;14.80;99.90;;;;;;12365411;28;19932;-84
2023/09/23 18:06:33;;;;;;;;;;;14.80;99.90;;;;;;12411778;28;20298;-84
2023/09/23 18:12:35;;;;;;;;;;;14.70;99.90;;;;;;12442449;28;19929;-85
2023/09/23 18:18:40;;;;;;;;;;;14.70;99.90;;;;;;12434960;28;19939;-85
2023/09/23 18:24:42;;;;;;;;;;;14.60;99.90;;;;;;12403853;28;20443;-84
2023/09/23 18:30:43;;;;;;;;;;;14.60;99.90;;;;;;12366318;28;19926;-84
2023/09/23 18:36:45;;;;;;;;;;;14.50;99.90;;;;;;12382228;28;20365;-84
2023/09/23 18:42:48;;;;;;;;;;;14.50;99.90;;;;;;12387201;28;20396;-84
2023/09/23 18:48:49;;;;;;;;;;;14.50;99.90;;;;;;12357877;28;19934;-84
2023/09/23 18:54:52;;;;;;;;;;;14.50;99.90;;;;;;12366019;28;19929;-83
2023/09/23 19:00:53;;;;;;;;;;;14.40;99.90;;;;;;12369219;28;20012;-82
2023/09/23 19:06:55;;;;;;;;;;;14.40;99.90;;;;;;12360461;28;19938;-82
2023/09/23 19:12:57;;;;;;;;;;;14.30;99.90;;;;;;12355690;28;19969;-83
2023/09/23 19:18:59;;;;;;;;;;;14.30;99.90;;;;;;12387001;28;19929;-82
2023/09/23 19:25:01;;;;;;;;;;;14.20;99.90;;;;;;12365149;28;19933;-83
2023/09/23 19:31:02;;;;;;;;;;;14.20;99.90;;;;;;12363123;28;20040;-82
2023/09/23 19:37:04;;;;;;;;;;;14.20;99.90;;;;;;12386703;28;19936;-82
2023/09/23 19:43:06;;;;;;;;;;;14.20;99.90;;;;;;12367925;28;19934;-82
2023/09/23 19:49:08;;;;;;;;;;;14.30;99.90;;;;;;12358227;28;21741;-82
2023/09/23 19:55:10;;;;;;;;;;;14.20;99.90;;;;;;12359279;28;20401;-82
2023/09/23 20:01:13;;;;;;;;;;;14.20;99.90;;;;;;12379501;28;19930;-82
2023/09/23 20:07:16;;;;;;;;;;;14.20;99.90;;;;;;12359012;28;19948;-84
2023/09/23 20:13:34;;;;;;;;;;;14.10;99.90;;;;;;12593655;27;20368;-34
2023/09/23 20:19:35;;;;;;;;;;;14.00;99.90;;;;;;12594998;28;19977;-34
2023/09/23 20:25:37;;;;;;;;;;;14.00;99.90;;;;;;12597281;28;19928;-34
2023/09/23 20:31:39;;;;;;;;;;;14.00;99.90;;;;;;12582533;28;20483;-34
2023/09/23 20:37:41;;;;;;;;;;;14.00;99.90;;;;;;12584624;28;19930;-34
2023/09/23 20:43:48;;;;;;;;;;;14.00;99.90;;;;;;12597051;28;19929;-34
2023/09/23 20:49:51;;;;;;;;;;;14.00;99.90;;;;;;12590536;28;19932;-34
2023/09/23 20:55:52;;;;;;;;;;;14.00;99.90;;;;;;12596043;28;20015;-34
2023/09/23 21:01:54;;;;;;;;;;;13.90;99.90;;;;;;12596651;28;19970;-34
2023/09/23 21:07:56;;;;;;;;;;;13.80;99.90;;;;;;12567523;28;19928;-34
2023/09/23 21:13:58;;;;;;;;;;;13.80;99.90;;;;;;12589924;28;19929;-34
2023/09/23 21:20:00;;;;;;;;;;;13.70;99.90;;;;;;12586581;28;19978;-34
2023/09/23 21:26:02;;;;;;;;;;;13.70;99.90;;;;;;12560293;28;19973;-34
2023/09/23 21:32:04;;;;;;;;;;;13.70;99.90;;;;;;12554049;28;19935;-34
2023/09/23 21:38:06;;;;;;;;;;;13.70;99.90;;;;;;12534202;28;19996;-34
2023/09/23 21:44:09;;;;;;;;;;;13.60;99.90;;;;;;12557652;28;19935;-35
2023/09/23 21:50:11;;;;;;;;;;;13.60;99.90;;;;;;12560458;28;19939;-34
2023/09/23 21:56:13;;;;;;;;;;;13.60;99.90;;;;;;12547863;28;19978;-34
2023/09/23 22:02:24;;;;;;;;;;;13.60;99.90;;;;;;12563726;28;19935;-34
2023/09/23 22:08:27;;;;;;;;;;;13.50;99.90;;;;;;12529692;28;19981;-34
2023/09/23 22:14:29;;;;;;;;;;;13.50;99.90;;;;;;12490592;28;19978;-35
2023/09/23 22:20:31;;;;;;;;;;;13.40;99.90;;;;;;12497538;28;20484;-34
2023/09/23 22:26:34;;;;;;;;;;;13.50;99.90;;;;;;12498355;28;20471;-34
2023/09/23 22:32:37;;;;;;;;;;;13.40;99.90;;;;;;12502260;28;19928;-34
2023/09/23 22:38:39;;;;;;;;;;;13.30;99.90;;;;;;12497527;28;19933;-35
2023/09/23 22:44:41;;;;;;;;;;;13.30;99.90;;;;;;12488473;28;19981;-34
2023/09/23 22:50:45;;;;;;;;;;;13.30;99.90;;;;;;12495620;28;19929;-35
2023/09/23 22:56:48;;;;;;;;;;;13.30;99.90;;;;;;12501733;28;19992;-34
2023/09/23 23:02:49;;;;;;;;;;;13.30;99.90;;;;;;12503105;28;19928;-34
2023/09/23 23:08:51;;;;;;;;;;;13.30;99.90;;;;;;12513251;28;19932;-34
2023/09/23 23:14:53;;;;;;;;;;;13.30;99.90;;;;;;12538307;28;19936;-34
2023/09/23 23:20:55;;;;;;;;;;;13.30;99.90;;;;;;12554952;28;19928;-34
2023/09/23 23:26:58;;;;;;;;;;;13.40;99.90;;;;;;12552337;28;20419;-34
2023/09/23 23:33:00;;;;;;;;;;;13.50;99.90;;;;;;12550654;28;20384;-34
2023/09/23 23:39:05;;;;;;;;;;;13.50;99.90;;;;;;12556850;28;20006;-34
2023/09/23 23:45:07;;;;;;;;;;;13.50;99.90;;;;;;12555424;28;19963;-34
2023/09/23 23:51:10;;;;;;;;;;;13.50;99.90;;;;;;12540291;28;20468;-34
2023/09/23 23:57:15;;;;;;;;;;;13.40;99.90;;;;;;12553752;28;20388;-34
